Главная страница
METAR-TAF:

METAR-TAF

Аэропорты :

Иркутск, Россия

широта: 52-16N, долгота: 104-19E, высота над уровнем моря: 513 м

Текущие метеонаблюдения

Эта сводка был подготовлена 34 минут назад, в 10:00 UTC
Ветер 12 Узел от западно-северо-западный
Температура 22°C
Влажность 69%
Давление 1002 hPa
Видимость 10 км и более
небольшая облачность на высоте 5000 фута, Кучево-дождевые.

METAR: UIII 161000Z 30006MPS 9999 FEW050CB 22/16 Q1002 R30/60D NOSIG RMK QFE707/0943

Время: 18:34 (10:34 UTC)

Прогноз

Эта сводка был подготовлена 2 часа и 34 минут назад, в 08:00 UTC
Прогноз действительный с 16-го 09 UTC до 17-го 09 UTC
Ветер 10 Узел от западно-северо-западный
Видимость 10 км и более
Отдельные облака на высоте 2000 фута, Кучево-дождевые.
временами
С 16-го 09 UTC до 16-го 18 UTC
Ветер 19 Узел переменных направлений
гроза, небольшой дождь

TAF: UIII 160800Z 1609/1709 30005MPS 9999 SCT020CB TEMPO 1609/1618 VRB10MPS -TSRA

Метеонаблюдения и прогнозы для более 4000 аэропортов (сводки METAR и TAF).

Имеющиеся станции представлены на карте желтыми и красными точками.

Чтобы увидеть название станции, наведите на нее мышь.

Затем щелкните, чтобы увидеть метеонаблюдения и метеопрогнозы.

Управление картой: чтобы увеличить масштаб, щелкните зеленые кнопки с черным крестиком; чтобы уменьшить масштаб, щелкните зеленую кнопку с тире; для просмотра соседних карт щелкайте зеленые стрелки.


METAR-TAF: